createdAt,value
2022-08-04T00:00:12.853Z,15.65
2022-08-04T00:03:04.345Z,13.43
2022-08-04T00:06:04.325Z,16.23
2022-08-04T00:08:47.579Z,27.95
2022-08-04T00:11:23.407Z,14.48
2022-08-04T00:14:03.625Z,13.88
2022-08-04T00:16:38.082Z,11.52
2022-08-04T00:19:36.328Z,14.73
2022-08-04T00:22:06.965Z,11.55
2022-08-04T00:24:35.598Z,14.38
2022-08-04T00:27:03.943Z,13.80
2022-08-04T00:29:31.998Z,16.20
2022-08-04T00:32:02.129Z,11.32
2022-08-04T00:34:31.553Z,11.60
2022-08-04T00:36:59.245Z,12.93
2022-08-04T00:39:27.353Z,17.48
2022-08-04T00:42:31.768Z,20.48
2022-08-04T00:45:16.994Z,25.70
2022-08-04T00:48:05.404Z,22.38
2022-08-04T00:50:35.349Z,13.18
2022-08-04T00:53:30.197Z,13.68
2022-08-04T00:56:16.619Z,16.35
2022-08-04T00:59:09.077Z,11.88
2022-08-04T01:02:06.535Z,19.05
2022-08-04T01:04:50.516Z,17.67
2022-08-04T01:07:44.407Z,14.57
2022-08-04T01:10:49.325Z,14.95
2022-08-04T01:13:38.577Z,18.83
2022-08-04T01:16:07.681Z,16.15
2022-08-04T01:18:59.408Z,14.48
2022-08-04T01:21:29.351Z,15.70
2022-08-04T01:24:22.256Z,19.42
2022-08-04T01:26:57.571Z,17.40
2022-08-04T01:29:42.282Z,18.38
2022-08-04T01:32:25.501Z,14.52
2022-08-04T01:35:47.995Z,16.50
2022-08-04T01:38:26.719Z,16.23
2022-08-04T01:40:59.520Z,18.83
2022-08-04T01:43:28.929Z,17.90
2022-08-04T01:46:01.436Z,19.65
2022-08-04T01:48:29.538Z,13.00
2022-08-04T01:51:04.632Z,17.35
2022-08-04T01:53:34.766Z,18.55
2022-08-04T01:56:03.969Z,16.00
2022-08-04T01:58:32.794Z,16.90
2022-08-04T02:01:08.740Z,14.48
2022-08-04T02:04:21.697Z,13.73
2022-08-04T02:06:29.444Z,18.50
2022-08-04T02:09:54.094Z,15.40
2022-08-04T02:12:22.260Z,16.08
2022-08-04T02:15:18.453Z,17.67
2022-08-04T02:17:51.434Z,17.10
2022-08-04T02:20:29.951Z,16.52
2022-08-04T02:23:03.314Z,18.42
2022-08-04T02:25:46.721Z,23.33
2022-08-04T02:31:03.794Z,21.25
2022-08-04T02:33:44.047Z,17.83
2022-08-04T02:36:28.071Z,19.80
2022-08-04T02:39:02.587Z,18.33
2022-08-04T02:41:31.738Z,17.88
2022-08-04T02:44:05.010Z,17.95
2022-08-04T02:46:33.739Z,20.05
2022-08-04T02:49:04.567Z,16.10
2022-08-04T02:51:37.895Z,16.88
2022-08-04T02:54:06.893Z,20.23
2022-08-04T02:56:39.792Z,17.33
2022-08-04T02:59:09.713Z,16.58
2022-08-04T03:01:37.964Z,18.35
2022-08-04T03:04:33.951Z,19.55
2022-08-04T03:07:28.741Z,22.02
2022-08-04T03:10:07.846Z,15.73
2022-08-04T03:12:43.817Z,20.52
2022-08-04T03:15:35.810Z,20.42
2022-08-04T03:18:53.582Z,21.55
2022-08-04T03:21:26.542Z,18.58
2022-08-04T03:24:27.300Z,21.65
2022-08-04T03:27:13.883Z,22.05
2022-08-04T03:30:10.683Z,21.77
2022-08-04T03:33:01.811Z,19.30
2022-08-04T03:35:28.929Z,28.45
2022-08-04T03:38:07.846Z,21.23
2022-08-04T03:40:55.540Z,24.08
2022-08-04T03:43:57.041Z,27.80
2022-08-04T03:46:44.254Z,28.23
2022-08-04T03:49:37.339Z,33.55
2022-08-04T03:52:31.766Z,29.23
2022-08-04T03:55:12.027Z,25.50
2022-08-04T03:58:11.368Z,29.60
2022-08-04T04:00:58.702Z,25.92
2022-08-04T04:03:41.146Z,19.60
2022-08-04T04:06:10.206Z,23.42
2022-08-04T04:09:02.750Z,27.05
2022-08-04T04:11:56.379Z,22.48
2022-08-04T04:14:43.277Z,28.35
2022-08-04T04:17:22.828Z,30.77
2022-08-04T04:19:58.466Z,23.55
2022-08-04T04:23:00.428Z,25.00
2022-08-04T04:25:53.584Z,21.35
2022-08-04T04:28:46.056Z,17.70
2022-08-04T04:31:41.622Z,25.00
2022-08-04T04:34:18.052Z,25.10
2022-08-04T04:37:05.327Z,19.35
2022-08-04T04:39:51.293Z,19.13
2022-08-04T04:42:24.764Z,19.60
2022-08-04T04:45:16.858Z,23.88
2022-08-04T04:48:09.089Z,15.88
2022-08-04T04:53:52.024Z,13.52
2022-08-04T04:56:48.984Z,18.48
2022-08-04T04:59:21.538Z,18.17
2022-08-04T05:01:59.408Z,20.70
2022-08-04T05:04:54.291Z,18.58
2022-08-04T05:07:53.284Z,17.85
2022-08-04T05:10:46.553Z,19.48
2022-08-04T05:14:38.327Z,19.23
2022-08-04T05:16:35.213Z,21.13
2022-08-04T05:19:31.509Z,17.00
2022-08-04T05:22:14.627Z,16.10
2022-08-04T05:24:45.365Z,22.05
2022-08-04T05:27:23.229Z,14.90
2022-08-04T05:29:57.846Z,20.67
2022-08-04T05:33:00.975Z,17.75
2022-08-04T05:36:16.847Z,19.50
2022-08-04T05:38:35.304Z,14.45
2022-08-04T05:41:04.095Z,14.65
2022-08-04T05:43:32.174Z,17.77
2022-08-04T05:46:00.851Z,17.05
2022-08-04T05:48:30.088Z,18.05
2022-08-04T05:51:00.918Z,9.45
2022-08-04T05:53:29.097Z,10.23
2022-08-04T05:55:59.672Z,10.10
2022-08-04T05:58:30.651Z,10.45
2022-08-04T06:01:00.927Z,8.30
2022-08-04T06:03:30.861Z,7.75
2022-08-04T06:05:59.480Z,10.60
2022-08-04T06:08:26.999Z,6.93
2022-08-04T06:10:57.252Z,8.07
2022-08-04T06:13:47.452Z,9.48
2022-08-04T06:16:29.888Z,7.10
2022-08-04T06:20:00.219Z,8.00
2022-08-04T06:21:52.503Z,6.97
2022-08-04T06:24:23.897Z,9.00
2022-08-04T06:26:52.667Z,10.80
2022-08-04T06:29:34.594Z,8.63
2022-08-04T06:32:28.973Z,5.83
2022-08-04T06:35:04.814Z,8.88
2022-08-04T06:37:41.892Z,9.25
2022-08-04T06:40:30.919Z,7.75
2022-08-04T06:43:05.141Z,6.45
2022-08-04T06:45:35.819Z,10.48
2022-08-04T06:48:05.666Z,10.15
2022-08-04T06:51:30.690Z,8.38
2022-08-04T06:53:26.445Z,8.10
2022-08-04T06:55:56.553Z,10.07
2022-08-04T06:58:24.402Z,15.82
2022-08-04T07:00:53.156Z,11.95
2022-08-04T07:03:21.970Z,7.35
2022-08-04T07:05:51.450Z,7.25
2022-08-04T07:08:19.694Z,6.93
2022-08-04T07:10:47.949Z,7.88
2022-08-04T07:13:17.371Z,11.40
2022-08-04T07:15:46.739Z,6.55
2022-08-04T07:18:14.015Z,7.30
2022-08-04T07:20:48.874Z,6.95
2022-08-04T07:23:17.936Z,6.50
2022-08-04T07:26:00.108Z,7.38
2022-08-04T07:28:41.113Z,7.68
2022-08-04T07:31:31.982Z,6.40
2022-08-04T07:34:17.395Z,8.20
2022-08-04T07:36:55.530Z,9.18
2022-08-04T07:39:28.008Z,11.80
2022-08-04T07:41:58.522Z,5.63
2022-08-04T07:44:26.072Z,7.15
2022-08-04T07:46:53.334Z,8.60
2022-08-04T07:49:55.001Z,5.75
2022-08-04T07:52:09.259Z,6.00
2022-08-04T07:54:37.838Z,7.15
2022-08-04T07:57:05.258Z,5.72
2022-08-04T07:59:33.570Z,7.97
2022-08-04T08:02:02.187Z,4.13
2022-08-04T08:04:29.748Z,5.50
2022-08-04T08:06:58.973Z,6.95
2022-08-04T08:09:26.751Z,7.55
2022-08-04T08:12:38.226Z,7.68
2022-08-04T08:14:42.801Z,8.60
2022-08-04T08:17:10.042Z,7.60
2022-08-04T08:19:37.603Z,5.60
2022-08-04T08:22:05.651Z,5.32
2022-08-04T08:24:42.614Z,5.88
2022-08-04T08:27:09.989Z,4.57
2022-08-04T08:29:39.321Z,4.57
2022-08-04T08:32:10.090Z,7.28
2022-08-04T08:34:39.115Z,6.78
2022-08-04T08:37:15.023Z,7.07
2022-08-04T08:40:04.846Z,3.95
2022-08-04T08:42:55.190Z,3.42
2022-08-04T08:45:34.593Z,4.28
2022-08-04T08:48:33.957Z,6.55
2022-08-04T08:51:28.825Z,4.80
2022-08-04T08:54:34.856Z,7.90
2022-08-04T08:57:17.662Z,5.47
2022-08-04T08:59:57.604Z,6.47
2022-08-04T09:03:12.779Z,5.88
2022-08-04T09:06:18.382Z,7.15
2022-08-04T09:09:12.765Z,4.95
2022-08-04T09:11:56.293Z,5.70
2022-08-04T09:14:37.560Z,12.07
2022-08-04T09:17:11.328Z,4.72
2022-08-04T09:19:50.286Z,8.18
2022-08-04T09:22:33.838Z,6.57
2022-08-04T09:25:09.219Z,6.07
2022-08-04T09:27:44.003Z,8.82
2022-08-04T09:30:13.683Z,8.25
2022-08-04T09:32:44.173Z,5.30
2022-08-04T09:35:20.000Z,8.27
2022-08-04T09:38:03.484Z,5.65
2022-08-04T09:40:55.323Z,5.45
2022-08-04T09:43:59.077Z,7.55
2022-08-04T09:46:54.080Z,4.90
2022-08-04T09:49:43.997Z,6.60
2022-08-04T09:52:31.978Z,9.40
2022-08-04T09:55:14.238Z,7.65
2022-08-04T09:57:50.193Z,5.40
2022-08-04T10:00:20.569Z,6.32
2022-08-04T10:03:12.128Z,7.68
2022-08-04T10:06:08.210Z,6.55
2022-08-04T10:08:57.480Z,5.30
2022-08-04T10:12:03.729Z,5.28
2022-08-04T10:14:39.591Z,5.45
2022-08-04T10:17:12.756Z,5.72
2022-08-04T10:19:56.171Z,7.72
2022-08-04T10:22:49.609Z,6.00
2022-08-04T10:26:07.034Z,8.18
2022-08-04T10:28:39.751Z,6.93
2022-08-04T10:31:10.951Z,6.93
2022-08-04T10:33:50.610Z,8.98
2022-08-04T10:36:24.134Z,6.72
2022-08-04T10:39:00.511Z,5.85
2022-08-04T10:41:34.178Z,6.50
2022-08-04T10:44:27.540Z,5.50
2022-08-04T10:47:08.310Z,5.47
2022-08-04T10:49:45.069Z,8.35
2022-08-04T10:52:34.967Z,7.85
2022-08-04T10:55:23.560Z,6.32
2022-08-04T10:58:19.890Z,7.10
2022-08-04T11:00:47.304Z,6.57
2022-08-04T11:03:23.327Z,6.97
2022-08-04T11:05:55.179Z,7.03
2022-08-04T11:08:25.998Z,8.05
2022-08-04T11:11:08.215Z,7.40
2022-08-04T11:13:47.545Z,8.52
2022-08-04T11:16:24.916Z,9.00
2022-08-04T11:19:19.660Z,8.27
2022-08-04T11:22:21.817Z,7.07
2022-08-04T11:24:58.717Z,6.95
2022-08-04T11:27:49.779Z,6.47
2022-08-04T11:30:19.608Z,6.25
2022-08-04T11:33:05.230Z,10.63
2022-08-04T11:35:50.759Z,8.25
2022-08-04T11:38:44.551Z,6.43
2022-08-04T11:41:26.577Z,6.85
2022-08-04T11:44:05.608Z,6.45
2022-08-04T11:46:42.374Z,7.80
2022-08-04T11:49:21.869Z,6.82
2022-08-04T11:51:50.387Z,6.60
2022-08-04T11:54:19.253Z,6.18
2022-08-04T11:56:46.612Z,8.40
2022-08-04T11:59:14.365Z,7.78
2022-08-04T12:02:21.226Z,12.32
2022-08-04T12:05:00.223Z,8.40
2022-08-04T12:08:00.418Z,7.43
2022-08-04T12:10:51.647Z,8.80
2022-08-04T12:13:40.960Z,7.63
2022-08-04T12:16:15.688Z,8.40
2022-08-04T12:19:06.822Z,7.68
2022-08-04T12:21:38.059Z,9.10
2022-08-04T12:24:15.982Z,6.57
2022-08-04T12:26:53.717Z,8.93
2022-08-04T12:29:27.679Z,7.20
2022-08-04T12:32:00.766Z,7.13
2022-08-04T12:34:45.345Z,8.20
2022-08-04T12:37:20.525Z,6.60
2022-08-04T12:40:28.292Z,8.20
2022-08-04T12:42:56.334Z,6.20
2022-08-04T12:45:32.921Z,7.85
2022-08-04T12:48:01.596Z,6.40
2022-08-04T12:50:29.649Z,6.43
2022-08-04T12:53:03.387Z,7.05
2022-08-04T12:55:34.462Z,7.57
2022-08-04T12:58:13.290Z,7.85
2022-08-04T13:00:47.710Z,6.33
2022-08-04T13:03:17.706Z,6.20
2022-08-04T13:05:46.653Z,7.55
2022-08-04T13:08:15.661Z,8.10
2022-08-04T13:10:47.319Z,7.53
2022-08-04T13:13:20.116Z,11.45
2022-08-04T13:16:13.023Z,7.03
2022-08-04T13:18:48.084Z,6.82
2022-08-04T13:21:49.509Z,9.20
2022-08-04T13:24:21.359Z,7.13
2022-08-04T13:27:02.445Z,7.28
2022-08-04T13:29:58.836Z,8.48
2022-08-04T13:32:32.722Z,8.25
2022-08-04T13:35:02.492Z,7.15
2022-08-04T13:37:37.360Z,8.45
2022-08-04T13:40:09.511Z,6.53
2022-08-04T13:42:39.058Z,14.32
2022-08-04T13:45:08.946Z,7.90
2022-08-04T13:47:39.404Z,11.15
2022-08-04T13:50:17.099Z,12.02
2022-08-04T13:52:45.443Z,8.38
2022-08-04T13:55:34.091Z,10.75
2022-08-04T13:58:21.689Z,7.93
2022-08-04T14:01:15.080Z,11.18
2022-08-04T14:03:54.613Z,8.43
2022-08-04T14:06:28.686Z,8.95
2022-08-04T14:09:15.900Z,6.97
2022-08-04T14:12:10.104Z,9.52
2022-08-04T14:14:35.789Z,7.70
2022-08-04T14:17:20.138Z,10.88
2022-08-04T14:20:01.558Z,9.73
2022-08-04T14:22:29.283Z,9.27
2022-08-04T14:25:16.094Z,10.88
2022-08-04T14:27:51.343Z,7.50
2022-08-04T14:30:21.943Z,8.82
2022-08-04T14:34:01.461Z,9.32
2022-08-04T14:36:01.756Z,9.25
2022-08-04T14:38:54.497Z,9.07
2022-08-04T14:41:31.815Z,9.55
2022-08-04T14:44:03.155Z,11.27
2022-08-04T14:46:36.920Z,11.13
2022-08-04T14:49:16.888Z,11.60
2022-08-04T14:51:46.665Z,14.88
2022-08-04T14:54:18.448Z,11.85
2022-08-04T14:56:54.809Z,11.90
2022-08-04T14:59:22.338Z,9.13
2022-08-04T15:02:00.199Z,10.23
2022-08-04T15:04:31.649Z,8.85
2022-08-04T15:07:01.016Z,10.07
2022-08-04T15:09:33.605Z,11.25
2022-08-04T15:12:00.905Z,15.70
2022-08-04T15:14:37.121Z,14.70
2022-08-04T15:17:12.433Z,12.23
2022-08-04T15:19:56.947Z,10.90
2022-08-04T15:22:25.520Z,11.93
2022-08-04T15:24:55.385Z,9.75
2022-08-04T15:27:30.053Z,9.93
2022-08-04T15:30:02.703Z,11.68
2022-08-04T15:32:34.830Z,11.57
2022-08-04T15:35:10.873Z,9.68
2022-08-04T15:37:46.529Z,11.23
2022-08-04T15:40:33.317Z,13.77
2022-08-04T15:43:38.104Z,13.85
2022-08-04T15:46:43.293Z,13.38
2022-08-04T15:48:52.741Z,10.90
2022-08-04T15:51:32.112Z,13.00
2022-08-04T15:54:03.564Z,13.57
2022-08-04T15:56:31.290Z,13.90
2022-08-04T15:58:58.981Z,13.02
2022-08-04T16:01:27.984Z,15.20
2022-08-04T16:04:00.995Z,12.13
2022-08-04T16:06:30.457Z,10.77
2022-08-04T16:09:00.514Z,11.20
2022-08-04T16:11:32.720Z,12.90
2022-08-04T16:14:05.455Z,15.85
2022-08-04T16:16:47.247Z,12.02
2022-08-04T16:19:52.818Z,13.13
2022-08-04T16:22:35.254Z,11.13
2022-08-04T16:25:02.791Z,10.73
2022-08-04T16:27:44.886Z,9.65
2022-08-04T16:30:15.190Z,11.05
2022-08-04T16:32:45.012Z,12.65
2022-08-04T16:35:22.902Z,11.07
2022-08-04T16:37:54.978Z,14.25
2022-08-04T16:40:43.789Z,19.83
2022-08-04T16:43:18.830Z,11.85
2022-08-04T16:45:48.601Z,11.05
2022-08-04T16:48:30.545Z,12.60
2022-08-04T16:51:09.965Z,10.88
2022-08-04T16:54:04.349Z,12.20
2022-08-04T16:56:33.167Z,11.15
2022-08-04T16:59:09.883Z,13.15
2022-08-04T17:01:38.803Z,14.13
2022-08-04T17:04:07.002Z,13.88
2022-08-04T17:06:39.763Z,13.88
2022-08-04T17:09:15.869Z,14.57
2022-08-04T17:11:45.313Z,13.40
2022-08-04T17:14:13.277Z,15.18
2022-08-04T17:16:43.037Z,18.55
2022-08-04T17:19:24.334Z,12.57
2022-08-04T17:22:07.401Z,12.85
2022-08-04T17:24:40.781Z,14.40
2022-08-04T17:28:19.192Z,13.10
2022-08-04T17:29:56.242Z,15.93
2022-08-04T17:32:24.337Z,15.77
2022-08-04T17:34:57.179Z,14.80
2022-08-04T17:40:18.525Z,18.77
2022-08-04T17:43:01.511Z,16.85
2022-08-04T17:48:24.728Z,17.98
2022-08-04T17:50:52.788Z,16.50
2022-08-04T17:54:01.513Z,15.10
2022-08-04T17:56:51.348Z,15.40
2022-08-04T17:59:56.512Z,15.40
2022-08-04T18:02:21.680Z,19.88
2022-08-04T18:05:07.234Z,16.35
2022-08-04T18:08:46.277Z,16.27
2022-08-04T18:10:52.575Z,21.58
2022-08-04T18:13:26.472Z,17.73
2022-08-04T18:16:14.491Z,15.65
2022-08-04T18:19:13.932Z,17.35
2022-08-04T18:21:45.514Z,23.38
2022-08-04T18:24:34.175Z,23.98
2022-08-04T18:27:06.630Z,20.52
2022-08-04T18:29:39.243Z,19.85
2022-08-04T18:32:10.159Z,24.38
2022-08-04T18:34:40.869Z,24.52
2022-08-04T18:38:05.947Z,27.08
2022-08-04T18:43:03.737Z,20.90
2022-08-04T18:45:36.012Z,28.92
2022-08-04T18:48:14.487Z,23.63
2022-08-04T18:51:10.143Z,22.33
2022-08-04T18:53:35.034Z,21.30
2022-08-04T18:56:19.858Z,24.35
2022-08-04T18:58:54.436Z,34.00
2022-08-04T19:01:30.106Z,20.50
2022-08-04T19:04:33.292Z,20.90
2022-08-04T19:07:23.560Z,18.67
2022-08-04T19:09:51.756Z,18.85
2022-08-04T19:12:27.197Z,18.95
2022-08-04T19:15:08.962Z,15.70
2022-08-04T19:17:54.297Z,20.40
2022-08-04T19:20:26.987Z,19.95
2022-08-04T19:24:10.773Z,19.77
2022-08-04T19:25:59.658Z,17.80
2022-08-04T19:28:37.992Z,18.30
2022-08-04T19:31:09.494Z,23.70
2022-08-04T19:33:59.312Z,22.92
2022-08-04T19:36:28.690Z,38.28
2022-08-04T19:39:01.505Z,26.13
2022-08-04T19:41:31.934Z,23.30
2022-08-04T19:43:59.626Z,22.88
2022-08-04T19:46:28.617Z,26.70
2022-08-04T19:48:58.871Z,25.08
2022-08-04T19:51:30.233Z,26.27
2022-08-04T19:54:03.868Z,27.02
2022-08-04T19:56:39.830Z,25.90
2022-08-04T19:59:10.260Z,22.23
2022-08-04T20:01:44.170Z,25.15
2022-08-04T20:04:13.987Z,22.58
2022-08-04T20:06:41.978Z,27.58
2022-08-04T20:09:25.063Z,30.75
2022-08-04T20:11:57.984Z,23.15
2022-08-04T20:14:32.339Z,25.45
2022-08-04T20:17:09.975Z,27.10
2022-08-04T20:19:39.346Z,30.08
2022-08-04T20:22:46.258Z,21.90
2022-08-04T20:25:00.909Z,32.03
2022-08-04T20:27:59.266Z,25.90
2022-08-04T20:30:29.036Z,33.35
2022-08-04T20:32:57.026Z,26.77
2022-08-04T20:35:26.875Z,20.58
2022-08-04T20:38:00.231Z,22.33
2022-08-04T20:40:28.998Z,23.98
2022-08-04T20:42:58.483Z,26.60
2022-08-04T20:45:56.910Z,20.45
2022-08-04T20:48:13.293Z,23.25
2022-08-04T20:50:40.440Z,23.85
2022-08-04T20:53:16.822Z,23.30
2022-08-04T20:55:55.411Z,26.83
2022-08-04T20:58:27.530Z,24.30
2022-08-04T21:00:57.010Z,28.60
2022-08-04T21:03:38.369Z,22.50
2022-08-04T21:06:12.078Z,19.70
2022-08-04T21:08:39.579Z,22.17
2022-08-04T21:11:09.096Z,25.00
2022-08-04T21:13:52.105Z,23.30
2022-08-04T21:16:53.959Z,19.98
2022-08-04T21:19:13.119Z,27.30
2022-08-04T21:24:10.408Z,27.17
2022-08-04T21:26:42.708Z,23.23
2022-08-04T21:29:10.654Z,21.60
2022-08-04T21:31:50.250Z,19.67
2022-08-04T21:34:35.858Z,25.23
2022-08-04T21:37:09.408Z,23.05
2022-08-04T21:39:50.717Z,21.33
2022-08-04T21:42:28.120Z,20.00
2022-08-04T21:44:57.782Z,20.88
2022-08-04T21:47:25.064Z,25.27
2022-08-04T21:49:55.882Z,18.73
2022-08-04T21:52:25.496Z,22.23
2022-08-04T21:54:54.431Z,22.55
2022-08-04T21:57:25.280Z,21.27
2022-08-04T21:59:53.026Z,21.70
2022-08-04T22:02:20.381Z,22.08
2022-08-04T22:04:49.029Z,23.38
2022-08-04T22:07:17.810Z,21.40
2022-08-04T22:10:00.068Z,24.25
2022-08-04T22:12:30.110Z,21.85
2022-08-04T22:14:59.788Z,22.23
2022-08-04T22:17:35.250Z,19.40
2022-08-04T22:20:04.705Z,20.67
2022-08-04T22:22:34.948Z,27.88
2022-08-04T22:28:00.776Z,20.95
2022-08-04T22:30:36.615Z,26.33
2022-08-04T22:33:07.544Z,22.17
2022-08-04T22:35:43.407Z,24.05
2022-08-04T22:38:20.819Z,18.27
2022-08-04T22:41:06.018Z,22.60
2022-08-04T22:43:34.828Z,21.95
2022-08-04T22:46:08.067Z,22.50
2022-08-04T22:48:37.106Z,23.63
2022-08-04T22:51:06.129Z,23.70
2022-08-04T22:53:35.257Z,24.27
2022-08-04T22:56:09.413Z,20.70
2022-08-04T22:58:44.761Z,23.73
2022-08-04T23:01:14.978Z,21.10
2022-08-04T23:03:51.015Z,24.25
2022-08-04T23:06:24.777Z,25.33
2022-08-04T23:08:53.023Z,30.35
2022-08-04T23:11:21.008Z,30.98
2022-08-04T23:13:49.482Z,28.88
2022-08-04T23:16:17.826Z,28.23
2022-08-04T23:18:48.900Z,37.20
2022-08-04T23:21:17.423Z,26.95
2022-08-04T23:24:01.084Z,30.45
2022-08-04T23:26:31.884Z,25.55
2022-08-04T23:28:59.337Z,27.67
2022-08-04T23:31:40.572Z,26.58
2022-08-04T23:34:09.371Z,28.15
2022-08-04T23:36:40.448Z,27.90
2022-08-04T23:39:07.858Z,25.95
2022-08-04T23:41:55.460Z,28.58
2022-08-04T23:44:25.460Z,27.58
2022-08-04T23:47:03.942Z,25.67
2022-08-04T23:49:43.725Z,30.70
2022-08-04T23:52:27.753Z,29.98
2022-08-04T23:54:59.021Z,27.83
2022-08-04T23:57:31.065Z,31.13
